Time;durP1;ratioP1;P1;durP2;ratioP2;P2;SDS_P1;SDS_P2;PMS_P1;PMS_P2;Temp;Humidity;BMP_temperature;BMP_pressure;BME280_temperature;BME280_humidity;BME280_pressure;Samples;Min_cycle;Max_cycle;Signal;HPM_P1;HPM_P2
2023/12/29 00:02:12;;;;;;;11.48;2.40;;;;;;;;;;5074021;28;20044;-71
2023/12/29 00:04:38;;;;;;;13.40;2.35;;;;;;;;;;5074292;28;20040;-71
2023/12/29 00:07:04;;;;;;;10.40;2.35;;;;;;;;;;5074181;28;20040;-71
2023/12/29 00:09:30;;;;;;;13.27;2.20;;;;;;;;;;5072581;28;20048;-71
2023/12/29 00:11:56;;;;;;;17.92;2.35;;;;;;;;;;5072498;28;20123;-71
2023/12/29 00:14:22;;;;;;;11.13;2.35;;;;;;;;;;5072498;28;20124;-71
2023/12/29 00:16:48;;;;;;;13.10;2.60;;;;;;;;;;5072535;28;20093;-71
2023/12/29 00:19:14;;;;;;;11.02;2.35;;;;;;;;;;5072279;28;20058;-71
2023/12/29 00:21:40;;;;;;;11.82;2.05;;;;;;;;;;5073478;28;20090;-71
2023/12/29 00:24:06;;;;;;;11.80;2.05;;;;;;;;;;5072699;28;20049;-71
2023/12/29 00:26:32;;;;;;;11.30;2.55;;;;;;;;;;5072324;28;20497;-70
2023/12/29 00:28:58;;;;;;;14.05;2.63;;;;;;;;;;5072184;28;20478;-71
2023/12/29 00:31:24;;;;;;;11.52;2.38;;;;;;;;;;5072303;28;20078;-71
2023/12/29 00:33:52;;;;;;;13.50;2.10;;;;;;;;;;5072240;28;20040;-71
2023/12/29 00:36:19;;;;;;;15.30;2.60;;;;;;;;;;5073849;28;20115;-71
2023/12/29 00:38:45;;;;;;;8.73;2.40;;;;;;;;;;5073716;28;20154;-71
2023/12/29 00:41:11;;;;;;;11.07;1.88;;;;;;;;;;5072215;28;20040;-71
2023/12/29 00:43:37;;;;;;;13.27;2.13;;;;;;;;;;5072158;28;20047;-71
2023/12/29 00:46:04;;;;;;;8.45;1.85;;;;;;;;;;5072322;28;20037;-71
2023/12/29 00:48:30;;;;;;;13.90;2.33;;;;;;;;;;5072059;28;20379;-71
2023/12/29 00:50:56;;;;;;;11.13;2.50;;;;;;;;;;5072280;28;20207;-71
2023/12/29 00:53:22;;;;;;;14.63;2.90;;;;;;;;;;5071934;28;20485;-71
2023/12/29 00:55:48;;;;;;;14.65;2.85;;;;;;;;;;5072072;28;20089;-70
2023/12/29 00:58:14;;;;;;;13.63;3.42;;;;;;;;;;5071887;28;20044;-70
2023/12/29 01:00:40;;;;;;;16.85;2.85;;;;;;;;;;5073430;28;20107;-71
2023/12/29 01:03:06;;;;;;;14.52;3.20;;;;;;;;;;5071886;28;20058;-71
2023/12/29 01:05:32;;;;;;;18.67;2.75;;;;;;;;;;5072128;28;20123;-71
2023/12/29 01:07:58;;;;;;;14.73;3.03;;;;;;;;;;5073269;28;20044;-71
2023/12/29 01:10:24;;;;;;;13.13;3.15;;;;;;;;;;5071865;28;20497;-70
2023/12/29 01:12:50;;;;;;;17.27;2.83;;;;;;;;;;5071836;28;20038;-70
2023/12/29 01:15:17;;;;;;;11.95;2.58;;;;;;;;;;5071726;28;20041;-70
2023/12/29 01:17:43;;;;;;;13.77;3.45;;;;;;;;;;5072064;28;20048;-70
2023/12/29 01:20:09;;;;;;;11.07;2.72;;;;;;;;;;5071727;28;20044;-70
2023/12/29 01:22:35;;;;;;;15.23;2.50;;;;;;;;;;5071852;28;20048;-70
2023/12/29 01:25:01;;;;;;;12.32;2.75;;;;;;;;;;5073150;28;20097;-71
2023/12/29 01:27:27;;;;;;;16.17;2.72;;;;;;;;;;5071557;28;20416;-71
2023/12/29 01:29:53;;;;;;;19.98;3.40;;;;;;;;;;5071606;28;20044;-70
2023/12/29 01:32:20;;;;;;;17.00;2.95;;;;;;;;;;5074342;28;20063;-70
2023/12/29 01:34:46;;;;;;;15.40;3.30;;;;;;;;;;5075782;28;20059;-70
2023/12/29 01:37:12;;;;;;;18.75;3.08;;;;;;;;;;5077116;28;20045;-70
2023/12/29 01:39:39;;;;;;;20.55;3.50;;;;;;;;;;5077082;28;20036;-70
2023/12/29 01:42:06;;;;;;;12.70;2.63;;;;;;;;;;5075697;28;20052;-70
2023/12/29 01:44:32;;;;;;;15.43;2.83;;;;;;;;;;5076997;28;20040;-70
2023/12/29 01:47:02;;;;;;;20.75;2.92;;;;;;;;;;5075663;28;20132;-71
2023/12/29 01:49:28;;;;;;;17.10;3.03;;;;;;;;;;5075326;28;20500;-71
2023/12/29 01:51:58;;;;;;;13.25;3.50;;;;;;;;;;5076717;28;20041;-71
2023/12/29 01:54:26;;;;;;;13.68;2.75;;;;;;;;;;5075554;28;20125;-71
2023/12/29 01:56:55;;;;;;;15.88;2.72;;;;;;;;;;5075313;28;20048;-71
2023/12/29 01:59:21;;;;;;;11.95;2.70;;;;;;;;;;5075148;28;20052;-70
2023/12/29 02:01:47;;;;;;;17.13;3.22;;;;;;;;;;5074985;28;20076;-70
2023/12/29 02:04:13;;;;;;;15.07;2.60;;;;;;;;;;5075173;28;20062;-71
2023/12/29 02:06:40;;;;;;;15.27;3.38;;;;;;;;;;5076506;28;20048;-71
2023/12/29 02:09:06;;;;;;;13.38;2.63;;;;;;;;;;5074780;28;20401;-71
2023/12/29 02:11:32;;;;;;;16.85;3.10;;;;;;;;;;5075198;28;20047;-71
2023/12/29 02:13:59;;;;;;;13.65;2.80;;;;;;;;;;5076240;28;20042;-70
2023/12/29 02:16:35;;;;;;;17.50;3.58;;;;;;;;;;5076260;28;20094;-70
2023/12/29 02:19:04;;;;;;;16.27;3.00;;;;;;;;;;5074801;28;20047;-70
2023/12/29 02:21:30;;;;;;;15.75;3.55;;;;;;;;;;5074681;28;20047;-70
2023/12/29 02:23:56;;;;;;;14.82;3.53;;;;;;;;;;5057902;28;20041;-71
2023/12/29 02:26:27;;;;;;;23.08;3.78;;;;;;;;;;5076157;28;20135;-71
2023/12/29 02:28:56;;;;;;;19.02;3.40;;;;;;;;;;5076011;28;20041;-71
2023/12/29 02:31:25;;;;;;;19.92;3.80;;;;;;;;;;5074475;28;20505;-71
2023/12/29 02:33:51;;;;;;;15.38;3.03;;;;;;;;;;5074421;28;20135;-71
2023/12/29 02:36:17;;;;;;;18.85;3.50;;;;;;;;;;5074422;28;20042;-71
2023/12/29 02:38:44;;;;;;;17.70;3.22;;;;;;;;;;5057980;28;20046;-71
2023/12/29 02:41:10;;;;;;;18.70;3.15;;;;;;;;;;5057649;28;20562;-71
2023/12/29 02:43:36;;;;;;;15.40;3.38;;;;;;;;;;5056841;28;20072;-71
2023/12/29 02:46:02;;;;;;;22.05;3.80;;;;;;;;;;5057636;28;20080;-71
2023/12/29 02:48:28;;;;;;;23.33;3.65;;;;;;;;;;5074134;28;20048;-71
2023/12/29 02:50:54;;;;;;;22.85;3.45;;;;;;;;;;5074437;28;20098;-71
2023/12/29 02:53:20;;;;;;;8.75;1.55;;;;;;;;;;5075587;28;20477;-71
2023/12/29 02:55:46;;;;;;;9.63;1.88;;;;;;;;;;5075505;28;20036;-71
2023/12/29 02:58:12;;;;;;;6.70;1.50;;;;;;;;;;5074037;28;20503;-71
2023/12/29 03:00:38;;;;;;;10.93;1.70;;;;;;;;;;5074020;28;20124;-71
2023/12/29 03:03:05;;;;;;;13.00;2.20;;;;;;;;;;5073936;28;20074;-71
2023/12/29 03:05:31;;;;;;;14.23;2.58;;;;;;;;;;5073874;28;20043;-71
2023/12/29 03:07:57;;;;;;;18.67;3.03;;;;;;;;;;5073870;28;20032;-71
2023/12/29 03:10:23;;;;;;;16.48;2.85;;;;;;;;;;5057118;28;20097;-71
2023/12/29 03:12:49;;;;;;;20.15;3.25;;;;;;;;;;5073971;28;20063;-71
2023/12/29 03:15:15;;;;;;;17.58;3.15;;;;;;;;;;5073718;28;20493;-71
2023/12/29 03:17:41;;;;;;;18.33;3.35;;;;;;;;;;5075174;28;20037;-71
2023/12/29 03:20:08;;;;;;;18.52;3.08;;;;;;;;;;5073648;28;20040;-71
2023/12/29 03:22:34;;;;;;;24.25;3.40;;;;;;;;;;5056826;28;20041;-71
2023/12/29 03:25:00;;;;;;;14.98;3.05;;;;;;;;;;5073534;28;20409;-71
2023/12/29 03:27:26;;;;;;;15.50;3.78;;;;;;;;;;5073763;28;20137;-71
2023/12/29 03:29:52;;;;;;;14.05;2.95;;;;;;;;;;5074899;28;20500;-71
2023/12/29 03:32:18;;;;;;;16.50;3.30;;;;;;;;;;5075179;28;20039;-71
2023/12/29 03:34:44;;;;;;;16.67;3.03;;;;;;;;;;5074799;28;20041;-71
2023/12/29 03:37:10;;;;;;;21.30;3.55;;;;;;;;;;5073276;28;20048;-71
2023/12/29 03:39:36;;;;;;;16.02;2.75;;;;;;;;;;5073214;28;20044;-71
2023/12/29 03:42:02;;;;;;;14.45;2.90;;;;;;;;;;5073173;28;20049;-71
2023/12/29 03:44:28;;;;;;;20.40;3.50;;;;;;;;;;5074697;28;20045;-71
2023/12/29 03:46:54;;;;;;;12.63;2.95;;;;;;;;;;5073364;28;20044;-71
2023/12/29 03:49:20;;;;;;;16.17;3.17;;;;;;;;;;5074494;28;20047;-71
2023/12/29 03:51:46;;;;;;;17.65;3.70;;;;;;;;;;5074437;28;20103;-71
2023/12/29 03:54:12;;;;;;;18.98;3.78;;;;;;;;;;5072491;28;20041;-71
2023/12/29 03:56:38;;;;;;;20.23;3.00;;;;;;;;;;5072368;28;20538;-71
2023/12/29 03:59:04;;;;;;;18.75;4.18;;;;;;;;;;5073123;28;20127;-71
2023/12/29 04:01:33;;;;;;;21.38;3.92;;;;;;;;;;5073016;28;20135;-71
2023/12/29 04:03:59;;;;;;;19.38;3.90;;;;;;;;;;5072836;28;20044;-71
2023/12/29 04:06:25;;;;;;;17.65;3.33;;;;;;;;;;5072679;28;20413;-71
2023/12/29 04:08:51;;;;;;;12.70;2.92;;;;;;;;;;5072765;28;20094;-71
2023/12/29 04:11:17;;;;;;;18.98;3.50;;;;;;;;;;5072618;28;20044;-71
2023/12/29 04:13:43;;;;;;;19.60;4.85;;;;;;;;;;5072498;28;20040;-71
2023/12/29 04:16:09;;;;;;;20.33;3.47;;;;;;;;;;5072532;28;20040;-71
2023/12/29 04:18:35;;;;;;;18.58;3.25;;;;;;;;;;5072494;28;20097;-71
2023/12/29 04:21:01;;;;;;;20.45;4.18;;;;;;;;;;5073963;28;20037;-71
2023/12/29 04:23:27;;;;;;;25.40;3.53;;;;;;;;;;5073874;28;20055;-71
2023/12/29 04:25:53;;;;;;;19.05;3.78;;;;;;;;;;5072985;28;20047;-71
2023/12/29 04:28:19;;;;;;;19.63;4.00;;;;;;;;;;5072285;28;20115;-71
2023/12/29 04:30:45;;;;;;;21.27;3.35;;;;;;;;;;5072296;28;20086;-71
2023/12/29 04:33:11;;;;;;;21.80;3.40;;;;;;;;;;5073728;28;20056;-71
2023/12/29 04:35:37;;;;;;;20.52;3.72;;;;;;;;;;5074147;28;20032;-71
2023/12/29 04:38:03;;;;;;;22.88;4.63;;;;;;;;;;5072165;28;20489;-71
2023/12/29 04:40:29;;;;;;;25.10;4.32;;;;;;;;;;5072381;28;20113;-71
2023/12/29 04:42:55;;;;;;;21.55;4.05;;;;;;;;;;5071996;28;20454;-71
2023/12/29 04:45:22;;;;;;;23.90;4.97;;;;;;;;;;5072091;28;20083;-71
2023/12/29 04:47:47;;;;;;;24.02;4.45;;;;;;;;;;5073554;28;20047;-71
2023/12/29 04:50:14;;;;;;;28.00;5.32;;;;;;;;;;5073469;28;20041;-71
2023/12/29 04:52:39;;;;;;;23.92;4.32;;;;;;;;;;5071897;28;20086;-71
2023/12/29 04:55:06;;;;;;;29.25;5.10;;;;;;;;;;5071971;28;20040;-71
2023/12/29 04:57:32;;;;;;;21.73;4.18;;;;;;;;;;5071915;28;20131;-71
2023/12/29 04:59:57;;;;;;;25.00;5.00;;;;;;;;;;5071923;28;20123;-71
2023/12/29 05:02:23;;;;;;;27.52;4.93;;;;;;;;;;5071996;28;20051;-71
2023/12/29 05:04:49;;;;;;;22.92;4.28;;;;;;;;;;5071911;28;20470;-71
2023/12/29 05:07:15;;;;;;;22.17;4.72;;;;;;;;;;5071442;28;20051;-71
2023/12/29 05:09:41;;;;;;;30.90;5.50;;;;;;;;;;5071725;28;20053;-71
2023/12/29 05:12:07;;;;;;;27.33;4.82;;;;;;;;;;5073244;28;20036;-71
2023/12/29 05:14:33;;;;;;;24.83;3.97;;;;;;;;;;5071747;28;20036;-71
2023/12/29 05:16:59;;;;;;;20.30;4.05;;;;;;;;;;5071996;28;20039;-71
2023/12/29 05:19:25;;;;;;;22.45;3.97;;;;;;;;;;5073228;28;20473;-71
2023/12/29 05:21:53;;;;;;;26.27;4.25;;;;;;;;;;5071918;28;20076;-71
2023/12/29 05:24:19;;;;;;;26.55;4.38;;;;;;;;;;5055002;28;20509;-71
2023/12/29 05:26:45;;;;;;;24.42;3.78;;;;;;;;;;5071717;28;20040;-71
2023/12/29 05:29:11;;;;;;;27.33;4.85;;;;;;;;;;5071615;28;20048;-71
2023/12/29 05:31:37;;;;;;;28.38;4.55;;;;;;;;;;5073158;28;20036;-71
2023/12/29 05:34:03;;;;;;;22.02;3.97;;;;;;;;;;5073013;28;20043;-71
2023/12/29 05:36:29;;;;;;;23.55;4.85;;;;;;;;;;5071819;28;20040;-71
2023/12/29 05:38:56;;;;;;;28.33;4.45;;;;;;;;;;5071547;28;20479;-71
2023/12/29 05:41:22;;;;;;;23.08;4.93;;;;;;;;;;5073060;28;20036;-71
2023/12/29 05:43:48;;;;;;;23.70;4.22;;;;;;;;;;5072608;28;20040;-71
2023/12/29 05:46:14;;;;;;;24.55;4.25;;;;;;;;;;5071460;28;20044;-71
2023/12/29 05:48:40;;;;;;;25.52;4.25;;;;;;;;;;5071721;28;20087;-71
2023/12/29 05:51:10;;;;;;;22.23;4.53;;;;;;;;;;5072949;28;20033;-71
2023/12/29 05:53:36;;;;;;;25.40;4.65;;;;;;;;;;5071574;28;20033;-71
2023/12/29 05:56:02;;;;;;;21.08;3.92;;;;;;;;;;5072850;28;20554;-71
2023/12/29 05:58:28;;;;;;;27.58;4.63;;;;;;;;;;5072837;28;20044;-71
2023/12/29 06:00:58;;;;;;;27.58;4.57;;;;;;;;;;5071551;28;20045;-71
2023/12/29 06:03:24;;;;;;;23.52;4.00;;;;;;;;;;5072487;28;20508;-71
2023/12/29 06:05:51;;;;;;;18.88;4.07;;;;;;;;;;5072819;28;20047;-71
2023/12/29 06:08:16;;;;;;;27.00;4.57;;;;;;;;;;5071239;28;20040;-71
2023/12/29 06:10:43;;;;;;;26.90;4.68;;;;;;;;;;5054797;28;20048;-71
2023/12/29 06:13:08;;;;;;;26.65;4.05;;;;;;;;;;5071183;28;20440;-71
2023/12/29 06:15:36;;;;;;;30.48;4.93;;;;;;;;;;5071182;28;20037;-71
2023/12/29 06:18:02;;;;;;;25.25;4.43;;;;;;;;;;5071697;28;20609;-71
2023/12/29 06:20:28;;;;;;;29.73;4.55;;;;;;;;;;5076286;28;20040;-71
2023/12/29 06:22:54;;;;;;;25.23;4.55;;;;;;;;;;5074851;28;20048;-71
2023/12/29 06:25:20;;;;;;;24.73;4.55;;;;;;;;;;5058023;28;20036;-71
2023/12/29 06:27:46;;;;;;;24.63;5.05;;;;;;;;;;5074868;28;20044;-71
2023/12/29 06:30:12;;;;;;;30.15;4.93;;;;;;;;;;5074563;28;20055;-71
2023/12/29 06:32:39;;;;;;;29.27;5.43;;;;;;;;;;5075919;28;20037;-71
2023/12/29 06:35:06;;;;;;;28.55;4.97;;;;;;;;;;5075947;28;20094;-71
2023/12/29 06:37:32;;;;;;;28.38;5.13;;;;;;;;;;5074425;28;20116;-71
2023/12/29 06:39:58;;;;;;;26.25;5.43;;;;;;;;;;5074434;28;20048;-71
2023/12/29 06:42:24;;;;;;;32.55;5.28;;;;;;;;;;5075453;28;20421;-71
2023/12/29 06:44:50;;;;;;;30.85;5.32;;;;;;;;;;5074295;28;20505;-71
2023/12/29 06:47:16;;;;;;;35.72;5.68;;;;;;;;;;5075904;28;20044;-71
2023/12/29 06:49:42;;;;;;;28.27;5.05;;;;;;;;;;5074138;28;20115;-71
2023/12/29 06:52:08;;;;;;;29.45;4.93;;;;;;;;;;5075801;28;20037;-71
2023/12/29 06:54:35;;;;;;;34.70;5.97;;;;;;;;;;5075641;28;20040;-71
2023/12/29 06:57:01;;;;;;;34.03;5.32;;;;;;;;;;5074079;28;20041;-70
2023/12/29 06:59:27;;;;;;;33.38;5.97;;;;;;;;;;5075639;28;20032;-71
2023/12/29 07:01:53;;;;;;;42.45;6.05;;;;;;;;;;5075492;28;20044;-70
2023/12/29 07:04:19;;;;;;;31.73;5.18;;;;;;;;;;5074092;28;20048;-71
2023/12/29 07:06:45;;;;;;;29.58;5.50;;;;;;;;;;5075435;28;20036;-71
2023/12/29 07:09:11;;;;;;;29.70;5.78;;;;;;;;;;5073812;28;20044;-70
2023/12/29 07:11:37;;;;;;;31.33;6.25;;;;;;;;;;5075384;28;20036;-70
2023/12/29 07:14:03;;;;;;;33.85;5.75;;;;;;;;;;5073739;28;20068;-71
2023/12/29 07:16:29;;;;;;;35.88;5.82;;;;;;;;;;5073769;28;20409;-71
2023/12/29 07:18:55;;;;;;;30.95;5.45;;;;;;;;;;5057169;28;20040;-70
2023/12/29 07:21:21;;;;;;;37.20;6.97;;;;;;;;;;5073972;28;20047;-71
2023/12/29 07:23:47;;;;;;;41.92;6.60;;;;;;;;;;5073532;28;20389;-70
2023/12/29 07:26:13;;;;;;;32.92;5.80;;;;;;;;;;5075058;28;20072;-70
2023/12/29 07:28:39;;;;;;;33.72;5.32;;;;;;;;;;5074805;28;20040;-71
2023/12/29 07:31:05;;;;;;;35.45;6.07;;;;;;;;;;5073373;28;20037;-71
2023/12/29 07:33:31;;;;;;;33.85;5.75;;;;;;;;;;5073323;28;20404;-71
2023/12/29 07:35:57;;;;;;;34.22;5.75;;;;;;;;;;5074848;28;20036;-70
2023/12/29 07:38:24;;;;;;;43.28;6.35;;;;;;;;;;5074832;28;20064;-70
2023/12/29 07:40:49;;;;;;;44.65;5.93;;;;;;;;;;5073242;28;20040;-70
2023/12/29 07:43:16;;;;;;;45.55;6.95;;;;;;;;;;5073681;28;20047;-70
2023/12/29 07:45:43;;;;;;;33.45;6.25;;;;;;;;;;5073154;28;20519;-70
2023/12/29 07:48:09;;;;;;;38.10;6.78;;;;;;;;;;5073024;28;20050;-70
2023/12/29 07:50:36;;;;;;;34.53;6.10;;;;;;;;;;5074257;28;20409;-70
2023/12/29 07:53:03;;;;;;;29.00;5.60;;;;;;;;;;5072939;28;20045;-70
2023/12/29 07:55:29;;;;;;;34.50;6.00;;;;;;;;;;5073346;28;20044;-70
2023/12/29 07:57:55;;;;;;;29.15;5.80;;;;;;;;;;5074509;28;20071;-70
2023/12/29 08:00:23;;;;;;;34.35;6.25;;;;;;;;;;5073081;28;20080;-70
2023/12/29 08:02:49;;;;;;;39.35;6.30;;;;;;;;;;5072799;28;20059;-71
2023/12/29 08:05:16;;;;;;;34.35;6.07;;;;;;;;;;5072728;28;20048;-70
2023/12/29 08:07:42;;;;;;;31.85;5.72;;;;;;;;;;5074254;28;20102;-71
2023/12/29 08:10:09;;;;;;;38.00;6.88;;;;;;;;;;5072587;28;20131;-71
2023/12/29 08:12:38;;;;;;;29.65;5.75;;;;;;;;;;5074086;28;20040;-71
2023/12/29 08:15:04;;;;;;;37.40;5.47;;;;;;;;;;5074141;28;20041;-71
2023/12/29 08:17:31;;;;;;;28.13;4.60;;;;;;;;;;5074207;28;20386;-71
2023/12/29 08:19:57;;;;;;;35.30;6.47;;;;;;;;;;5072469;28;20048;-71
2023/12/29 08:22:23;;;;;;;29.58;4.75;;;;;;;;;;5073713;28;20040;-71
2023/12/29 08:24:49;;;;;;;27.92;4.53;;;;;;;;;;5072949;28;20378;-71
2023/12/29 08:27:15;;;;;;;31.75;5.07;;;;;;;;;;5072806;28;20511;-71
2023/12/29 08:29:41;;;;;;;32.88;5.30;;;;;;;;;;5073013;28;20041;-71
2023/12/29 08:32:07;;;;;;;28.50;4.68;;;;;;;;;;5073810;28;20040;-70
2023/12/29 08:34:37;;;;;;;25.60;4.60;;;;;;;;;;5072733;28;20058;-71
2023/12/29 08:37:04;;;;;;;23.63;4.18;;;;;;;;;;5073652;28;20099;-71
2023/12/29 08:39:30;;;;;;;28.13;4.05;;;;;;;;;;5072437;28;20047;-71
2023/12/29 08:41:56;;;;;;;26.73;4.57;;;;;;;;;;5071511;28;20041;-72
2023/12/29 08:44:21;;;;;;;30.88;4.63;;;;;;;;;;5072106;28;20059;-71
2023/12/29 08:46:48;;;;;;;35.97;5.15;;;;;;;;;;5072294;28;20036;-70
2023/12/29 08:49:14;;;;;;;28.98;4.43;;;;;;;;;;5071941;28;20041;-70
2023/12/29 08:51:40;;;;;;;30.58;5.15;;;;;;;;;;5073085;28;20095;-70
2023/12/29 08:54:06;;;;;;;37.28;5.10;;;;;;;;;;5072240;28;20097;-70
2023/12/29 08:56:32;;;;;;;23.38;4.20;;;;;;;;;;5071992;28;20045;-74
2023/12/29 08:58:58;;;;;;;27.33;5.25;;;;;;;;;;5073736;28;20127;-71
2023/12/29 09:01:24;;;;;;;21.95;3.75;;;;;;;;;;5072131;28;20123;-70
2023/12/29 09:03:50;;;;;;;22.20;4.00;;;;;;;;;;5072114;28;20131;-70
2023/12/29 09:06:16;;;;;;;22.20;3.65;;;;;;;;;;5071919;28;20639;-70
2023/12/29 09:08:42;;;;;;;20.42;3.83;;;;;;;;;;5073305;28;20048;-71
2023/12/29 09:11:08;;;;;;;19.63;3.63;;;;;;;;;;5072192;28;20400;-71
2023/12/29 09:13:34;;;;;;;20.00;3.70;;;;;;;;;;5071762;28;20075;-71
2023/12/29 09:16:00;;;;;;;19.02;3.83;;;;;;;;;;5072115;28;20072;-71
2023/12/29 09:18:26;;;;;;;21.65;4.18;;;;;;;;;;5073319;28;20037;-71
2023/12/29 09:20:52;;;;;;;19.65;3.47;;;;;;;;;;5071709;28;20044;-71
2023/12/29 09:23:18;;;;;;;26.50;3.92;;;;;;;;;;5072163;28;20043;-70
2023/12/29 09:25:44;;;;;;;20.25;3.80;;;;;;;;;;5072070;28;20043;-70
2023/12/29 09:28:10;;;;;;;24.58;3.50;;;;;;;;;;5071925;28;20076;-71
2023/12/29 09:30:36;;;;;;;22.02;3.63;;;;;;;;;;5071545;28;20041;-71
2023/12/29 09:33:03;;;;;;;21.77;4.18;;;;;;;;;;5071561;28;20540;-71
2023/12/29 09:35:29;;;;;;;22.17;4.45;;;;;;;;;;5073071;28;20064;-71
2023/12/29 09:37:55;;;;;;;24.85;5.20;;;;;;;;;;5071538;28;20068;-70
2023/12/29 09:40:21;;;;;;;23.30;4.10;;;;;;;;;;5072796;28;20044;-70
2023/12/29 09:42:48;;;;;;;21.15;3.75;;;;;;;;;;5071379;28;20421;-71
2023/12/29 09:45:14;;;;;;;24.58;3.83;;;;;;;;;;5071721;28;20067;-71
2023/12/29 09:47:41;;;;;;;22.17;3.80;;;;;;;;;;5072944;28;20036;-71
2023/12/29 09:50:08;;;;;;;28.27;4.40;;;;;;;;;;5072888;28;20037;-71
2023/12/29 09:52:34;;;;;;;23.55;4.20;;;;;;;;;;5071272;28;20036;-73
2023/12/29 09:55:00;;;;;;;19.67;3.67;;;;;;;;;;5076583;28;20043;-76
2023/12/29 09:57:26;;;;;;;21.27;3.90;;;;;;;;;;5075155;28;20420;-75
2023/12/29 09:59:54;;;;;;;19.55;3.50;;;;;;;;;;5075514;28;20189;-76
2023/12/29 10:02:23;;;;;;;20.42;3.65;;;;;;;;;;5075227;28;20408;-76
2023/12/29 10:04:49;;;;;;;22.35;3.42;;;;;;;;;;5075442;28;20385;-75
2023/12/29 10:07:25;;;;;;;27.65;4.78;;;;;;;;;;5075282;28;20385;-75
2023/12/29 10:10:02;;;;;;;26.20;4.45;;;;;;;;;;5076153;28;20603;-76
2023/12/29 10:12:28;;;;;;;20.08;4.55;;;;;;;;;;5074955;28;20170;-75
2023/12/29 10:15:12;;;;;;;28.05;4.70;;;;;;;;;;5058244;28;20036;-74
2023/12/29 10:17:41;;;;;;;25.00;4.72;;;;;;;;;;5075141;28;20059;-75
2023/12/29 10:20:11;;;;;;;21.73;3.60;;;;;;;;;;5058415;28;20041;-74
2023/12/29 10:22:52;;;;;;;19.02;3.88;;;;;;;;;;5076117;28;20070;-75
2023/12/29 10:25:18;;;;;;;17.95;3.30;;;;;;;;;;5074712;28;20051;-74
2023/12/29 10:27:44;;;;;;;18.77;3.67;;;;;;;;;;5057945;28;20123;-76
2023/12/29 10:30:10;;;;;;;18.38;3.50;;;;;;;;;;5074560;28;20132;-75
2023/12/29 10:32:36;;;;;;;22.10;4.03;;;;;;;;;;5074427;28;20036;-74
2023/12/29 10:35:12;;;;;;;24.58;4.20;;;;;;;;;;5074461;28;20047;-75
2023/12/29 10:37:38;;;;;;;19.08;3.03;;;;;;;;;;5074445;28;20497;-75
2023/12/29 10:40:05;;;;;;;26.50;3.70;;;;;;;;;;5075919;28;20067;-76
2023/12/29 10:42:32;;;;;;;21.80;3.97;;;;;;;;;;5074301;28;20040;-75
2023/12/29 10:45:07;;;;;;;24.20;4.07;;;;;;;;;;5074257;28;20036;-74
2023/12/29 10:47:35;;;;;;;19.77;3.15;;;;;;;;;;5074219;28;20048;-76
2023/12/29 10:50:03;;;;;;;19.35;3.50;;;;;;;;;;5075607;28;20048;-76
2023/12/29 10:52:30;;;;;;;17.45;3.35;;;;;;;;;;5074327;28;20080;-76
2023/12/29 10:55:06;;;;;;;18.05;2.72;;;;;;;;;;5074116;28;20502;-74
2023/12/29 10:57:32;;;;;;;20.17;3.13;;;;;;;;;;5074048;28;20036;-75
2023/12/29 11:00:00;;;;;;;15.27;2.65;;;;;;;;;;5075774;28;20513;-73
2023/12/29 11:02:26;;;;;;;17.33;3.10;;;;;;;;;;5075399;28;20067;-74
2023/12/29 11:04:52;;;;;;;23.60;3.33;;;;;;;;;;5073420;28;20045;-74
2023/12/29 11:07:37;;;;;;;20.70;3.70;;;;;;;;;;5074144;28;20048;-74
2023/12/29 11:10:04;;;;;;;17.90;2.90;;;;;;;;;;5057165;28;20044;-74
2023/12/29 11:12:32;;;;;;;17.73;3.58;;;;;;;;;;5073859;28;20048;-71
2023/12/29 11:14:59;;;;;;;21.23;3.85;;;;;;;;;;5075306;28;20039;-71
2023/12/29 11:17:26;;;;;;;17.08;3.15;;;;;;;;;;5073793;28;20044;-71
2023/12/29 11:19:53;;;;;;;19.00;2.88;;;;;;;;;;5074942;28;20548;-71
2023/12/29 11:22:20;;;;;;;17.92;3.25;;;;;;;;;;5075111;28;20037;-71
2023/12/29 11:24:47;;;;;;;22.90;3.25;;;;;;;;;;5073890;28;20041;-71
2023/12/29 11:27:13;;;;;;;20.23;3.40;;;;;;;;;;5073846;28;20048;-71
2023/12/29 11:29:42;;;;;;;15.23;2.70;;;;;;;;;;5073584;28;20102;-71
2023/12/29 11:32:12;;;;;;;19.02;3.20;;;;;;;;;;5075137;28;20094;-71
2023/12/29 11:34:42;;;;;;;14.98;3.03;;;;;;;;;;5074946;28;20120;-72
2023/12/29 11:37:41;;;;;;;22.67;3.83;;;;;;;;;;5073393;28;20040;-71
2023/12/29 11:40:15;;;;;;;16.17;3.38;;;;;;;;;;5062230;28;20048;-71
2023/12/29 11:42:42;;;;;;;18.23;3.40;;;;;;;;;;5075170;28;20037;-71
2023/12/29 11:45:29;;;;;;;17.52;3.72;;;;;;;;;;5075008;28;20044;-71
2023/12/29 11:47:56;;;;;;;17.27;3.08;;;;;;;;;;5056776;28;20497;-71
2023/12/29 11:50:29;;;;;;;14.10;2.63;;;;;;;;;;5074246;28;20472;-71
2023/12/29 11:52:55;;;;;;;17.60;3.05;;;;;;;;;;5073092;28;20086;-71
2023/12/29 11:55:21;;;;;;;15.32;2.53;;;;;;;;;;5073070;28;20043;-71
2023/12/29 11:57:47;;;;;;;19.38;2.90;;;;;;;;;;5073045;28;20036;-71
2023/12/29 12:00:13;;;;;;;18.63;3.47;;;;;;;;;;5073143;28;20045;-71
2023/12/29 12:02:41;;;;;;;14.30;3.15;;;;;;;;;;5072771;28;20047;-71
2023/12/29 12:05:09;;;;;;;13.52;2.20;;;;;;;;;;5073161;28;20040;-71
2023/12/29 12:07:35;;;;;;;12.93;2.70;;;;;;;;;;5073438;28;20044;-71
2023/12/29 12:10:20;;;;;;;11.18;3.00;;;;;;;;;;5074172;28;20084;-71
2023/12/29 12:12:51;;;;;;;12.35;2.90;;;;;;;;;;5072890;28;20135;-72
2023/12/29 12:15:30;;;;;;;10.68;2.38;;;;;;;;;;5072477;28;20033;-72
2023/12/29 12:17:56;;;;;;;15.90;2.95;;;;;;;;;;5072375;28;20076;-72
2023/12/29 12:20:22;;;;;;;11.95;2.30;;;;;;;;;;5072537;28;20044;-72
2023/12/29 12:22:58;;;;;;;14.20;2.08;;;;;;;;;;5072409;28;20044;-72
2023/12/29 12:25:28;;;;;;;19.35;2.90;;;;;;;;;;5055787;28;20048;-72
2023/12/29 12:27:54;;;;;;;15.75;3.13;;;;;;;;;;5073014;28;20079;-70
2023/12/29 12:30:21;;;;;;;16.00;2.80;;;;;;;;;;5072317;28;20048;-71
2023/12/29 12:32:47;;;;;;;14.18;2.63;;;;;;;;;;5072254;28;20044;-71
2023/12/29 12:35:15;;;;;;;19.38;3.42;;;;;;;;;;5072594;28;20078;-71
2023/12/29 12:37:41;;;;;;;16.05;2.88;;;;;;;;;;5073522;28;20507;-71
2023/12/29 12:40:08;;;;;;;13.25;2.70;;;;;;;;;;5073476;28;20496;-71
2023/12/29 12:42:38;;;;;;;19.73;3.13;;;;;;;;;;5073593;28;20055;-71
2023/12/29 12:45:06;;;;;;;15.82;3.83;;;;;;;;;;5073733;28;20036;-71
2023/12/29 12:47:34;;;;;;;18.77;2.70;;;;;;;;;;5073390;28;20513;-71
2023/12/29 12:50:01;;;;;;;16.60;3.50;;;;;;;;;;5073565;28;20036;-71
2023/12/29 12:52:30;;;;;;;13.80;2.90;;;;;;;;;;5073576;28;20047;-71
2023/12/29 12:54:56;;;;;;;20.45;3.60;;;;;;;;;;5055361;28;20475;-71
2023/12/29 12:57:22;;;;;;;13.25;2.75;;;;;;;;;;5073240;28;20393;-71
2023/12/29 12:59:50;;;;;;;15.52;3.03;;;;;;;;;;5072070;28;20093;-71
2023/12/29 13:02:16;;;;;;;16.10;2.58;;;;;;;;;;5071778;28;20051;-71
2023/12/29 13:04:42;;;;;;;15.23;2.88;;;;;;;;;;5071990;28;20089;-71
2023/12/29 13:07:09;;;;;;;21.50;3.35;;;;;;;;;;5071919;28;20130;-71
2023/12/29 13:09:38;;;;;;;14.68;2.72;;;;;;;;;;5073355;28;20049;-71
2023/12/29 13:12:10;;;;;;;25.05;4.68;;;;;;;;;;5071775;28;20036;-71
2023/12/29 13:14:36;;;;;;;21.38;3.78;;;;;;;;;;5072112;28;20518;-71
2023/12/29 13:17:06;;;;;;;17.85;3.05;;;;;;;;;;5071802;28;20045;-71
2023/12/29 13:19:34;;;;;;;14.57;2.95;;;;;;;;;;5072019;28;20519;-71
2023/12/29 13:22:00;;;;;;;14.27;3.17;;;;;;;;;;5072493;28;20047;-71
2023/12/29 13:24:26;;;;;;;17.45;3.53;;;;;;;;;;5055271;28;20389;-71
2023/12/29 13:26:55;;;;;;;11.25;2.97;;;;;;;;;;5072029;28;20048;-71
2023/12/29 13:29:24;;;;;;;25.77;3.58;;;;;;;;;;5075808;28;20045;-71
2023/12/29 13:31:50;;;;;;;16.45;3.63;;;;;;;;;;5075713;28;20041;-72
2023/12/29 13:34:28;;;;;;;21.05;3.00;;;;;;;;;;5076054;28;20505;-72
2023/12/29 13:37:00;;;;;;;14.18;2.90;;;;;;;;;;5075713;28;20032;-72
2023/12/29 13:39:31;;;;;;;13.88;2.53;;;;;;;;;;5075882;28;20051;-71
2023/12/29 13:41:59;;;;;;;12.38;2.63;;;;;;;;;;5075584;28;20059;-71
2023/12/29 13:44:27;;;;;;;13.85;2.83;;;;;;;;;;5077120;28;20040;-71
2023/12/29 13:46:53;;;;;;;13.30;3.03;;;;;;;;;;5077051;28;20047;-71
2023/12/29 13:49:19;;;;;;;20.33;3.38;;;;;;;;;;5076984;28;20040;-71
2023/12/29 13:51:46;;;;;;;13.52;2.40;;;;;;;;;;5076966;28;20087;-71
2023/12/29 13:54:12;;;;;;;19.60;3.47;;;;;;;;;;5058608;28;20416;-71
2023/12/29 13:56:39;;;;;;;16.42;2.60;;;;;;;;;;5077015;28;20040;-71
2023/12/29 13:59:07;;;;;;;14.85;3.10;;;;;;;;;;5075726;28;20044;-71
2023/12/29 14:01:39;;;;;;;13.35;3.40;;;;;;;;;;5076841;28;20040;-71
2023/12/29 14:04:08;;;;;;;18.10;3.60;;;;;;;;;;5075138;28;20048;-71
2023/12/29 14:06:37;;;;;;;16.17;3.10;;;;;;;;;;5075385;28;20044;-71
2023/12/29 14:09:04;;;;;;;17.65;3.28;;;;;;;;;;5075436;28;20122;-71
2023/12/29 14:11:30;;;;;;;15.65;2.90;;;;;;;;;;5075121;28;20037;-71
2023/12/29 14:13:57;;;;;;;14.40;2.97;;;;;;;;;;5075377;28;20033;-71
2023/12/29 14:16:23;;;;;;;17.02;2.67;;;;;;;;;;5074990;28;20043;-71
2023/12/29 14:18:53;;;;;;;16.90;2.70;;;;;;;;;;5074894;28;20128;-71
2023/12/29 14:21:32;;;;;;;17.35;3.08;;;;;;;;;;5074931;28;20086;-74
2023/12/29 14:24:02;;;;;;;17.02;2.85;;;;;;;;;;5076202;28;20098;-71
2023/12/29 14:26:29;;;;;;;21.05;3.97;;;;;;;;;;5074931;28;20047;-71
2023/12/29 14:29:05;;;;;;;18.75;2.97;;;;;;;;;;5074601;28;20098;-71
2023/12/29 14:31:33;;;;;;;14.70;3.58;;;;;;;;;;5074594;28;20453;-71